createdAt,value
2018-12-24T00:02:05.941Z,99296.48
2018-12-24T00:04:32.089Z,99299.35
2018-12-24T00:06:58.234Z,99304.95
2018-12-24T00:09:24.415Z,99300.66
2018-12-24T00:11:50.583Z,99301.98
2018-12-24T00:14:17.077Z,99309.47
2018-12-24T00:16:43.710Z,99308.23
2018-12-24T00:19:09.903Z,99305.75
2018-12-24T00:21:36.120Z,99313.30
2018-12-24T00:24:03.017Z,99322.19
2018-12-24T00:26:29.780Z,99322.61
2018-12-24T00:28:56.005Z,99332.71
2018-12-24T00:31:22.197Z,99332.23
2018-12-24T00:33:48.339Z,99339.39
2018-12-24T00:36:14.770Z,99336.95
2018-12-24T00:38:41.483Z,99338.97
2018-12-24T00:41:07.601Z,99345.71
2018-12-24T00:43:33.805Z,99344.92
2018-12-24T00:46:00.279Z,99341.19
2018-12-24T00:48:26.443Z,99336.98
2018-12-24T00:50:52.561Z,99330.25
2018-12-24T00:53:19.086Z,99334.02
2018-12-24T00:55:45.276Z,99334.44
2018-12-24T00:58:11.859Z,99331.00
2018-12-24T01:00:38.391Z,99334.41
2018-12-24T01:03:04.491Z,99336.94
2018-12-24T01:05:30.948Z,99331.09
2018-12-24T01:07:57.367Z,99331.91
2018-12-24T01:10:23.802Z,99339.52
2018-12-24T01:12:50.240Z,99336.13
2018-12-24T01:15:16.664Z,99336.93
2018-12-24T01:17:43.133Z,99332.30
2018-12-24T01:20:09.343Z,99324.67
2018-12-24T01:22:35.882Z,99323.92
2018-12-24T01:25:02.015Z,99318.88
2018-12-24T01:27:28.194Z,99318.39
2018-12-24T01:29:54.774Z,99317.99
2018-12-24T01:32:21.291Z,99315.30
2018-12-24T01:34:47.433Z,99311.68
2018-12-24T01:37:13.968Z,99314.67
2018-12-24T01:39:40.168Z,99310.84
2018-12-24T01:42:06.724Z,99320.39
2018-12-24T01:44:32.857Z,99329.16
2018-12-24T01:46:59.308Z,99321.24
2018-12-24T01:49:25.481Z,99325.05
2018-12-24T01:51:52.053Z,99331.02
2018-12-24T01:54:18.175Z,99325.94
2018-12-24T01:56:44.370Z,99330.48
2018-12-24T01:59:10.573Z,99322.61
2018-12-24T02:01:36.778Z,99327.64
2018-12-24T02:04:02.963Z,99327.59
2018-12-24T02:06:29.525Z,99333.05
2018-12-24T02:08:55.794Z,99334.25
2018-12-24T02:11:21.947Z,99326.73
2018-12-24T02:13:48.144Z,99326.77
2018-12-24T02:16:14.276Z,99330.59
2018-12-24T02:18:40.775Z,99332.61
2018-12-24T02:21:06.931Z,99336.81
2018-12-24T02:23:33.465Z,99330.55
2018-12-24T02:25:59.990Z,99333.05
2018-12-24T02:28:26.115Z,99334.65
2018-12-24T02:30:52.647Z,99335.12
2018-12-24T02:33:18.840Z,99335.17
2018-12-24T02:35:45.306Z,99338.58
2018-12-24T02:38:11.831Z,99340.74
2018-12-24T02:40:38.367Z,99341.23
2018-12-24T02:43:04.521Z,99336.58
2018-12-24T02:45:31.025Z,99339.41
2018-12-24T02:47:57.567Z,99335.12
2018-12-24T02:50:24.095Z,99344.34
2018-12-24T02:52:50.226Z,99333.45
2018-12-24T02:55:16.344Z,99339.47
2018-12-24T02:57:42.548Z,99339.03
2018-12-24T03:00:08.737Z,99341.55
2018-12-24T03:02:34.879Z,99356.68
2018-12-24T03:05:01.084Z,99353.36
2018-12-24T03:07:27.227Z,99356.13
2018-12-24T03:09:53.341Z,99368.23
2018-12-24T03:12:19.495Z,99372.50
2018-12-24T03:14:45.686Z,99373.45
2018-12-24T03:17:12.236Z,99375.64
2018-12-24T03:19:39.205Z,99381.16
2018-12-24T03:22:05.451Z,99379.39
2018-12-24T03:24:31.593Z,99378.16
2018-12-24T03:26:57.790Z,99376.87
2018-12-24T03:29:23.911Z,99377.27
2018-12-24T03:31:50.042Z,99379.37
2018-12-24T03:34:16.651Z,99382.75
2018-12-24T03:36:42.845Z,99387.00
2018-12-24T03:39:09.309Z,99389.52
2018-12-24T03:41:35.460Z,99386.55
2018-12-24T03:44:02.068Z,99386.96
2018-12-24T03:46:28.609Z,99384.44
2018-12-24T03:48:54.848Z,99391.08
2018-12-24T03:51:21.379Z,99386.53
2018-12-24T03:53:47.952Z,99389.48
2018-12-24T03:56:14.442Z,99392.05
2018-12-24T03:58:40.574Z,99399.17
2018-12-24T04:01:06.768Z,99416.01
2018-12-24T04:03:32.918Z,99414.30
2018-12-24T04:05:59.020Z,99413.77
2018-12-24T04:08:25.179Z,99416.72
2018-12-24T04:10:51.396Z,99419.30
2018-12-24T04:13:22.356Z,99427.30
2018-12-24T04:15:45.384Z,99432.38
2018-12-24T04:18:11.589Z,99445.42
2018-12-24T04:20:37.766Z,99438.67
2018-12-24T04:23:04.191Z,99438.70
2018-12-24T04:25:30.396Z,99448.36
2018-12-24T04:27:56.523Z,99453.84
2018-12-24T04:30:22.709Z,99462.23
2018-12-24T04:32:48.895Z,99463.95
2018-12-24T04:35:15.054Z,99473.61
2018-12-24T04:37:41.760Z,99484.52
2018-12-24T04:40:07.879Z,99492.95
2018-12-24T04:42:33.995Z,99495.09
2018-12-24T04:45:00.650Z,99516.11
2018-12-24T04:47:26.848Z,99523.67
2018-12-24T04:49:53.073Z,99524.50
2018-12-24T04:52:19.277Z,99540.52
2018-12-24T04:54:45.492Z,99543.86
2018-12-24T04:57:11.990Z,99553.97
2018-12-24T04:59:38.128Z,99561.11
2018-12-24T05:02:04.547Z,99568.27
2018-12-24T05:04:30.699Z,99582.55
2018-12-24T05:06:56.905Z,99590.48
2018-12-24T05:09:23.103Z,99600.17
2018-12-24T05:11:49.988Z,99611.97
2018-12-24T05:14:16.523Z,99630.89
2018-12-24T05:16:42.730Z,99640.51
2018-12-24T05:19:08.869Z,99657.19
2018-12-24T05:21:35.058Z,99668.13
2018-12-24T05:24:01.248Z,99676.04
2018-12-24T05:26:27.459Z,99691.15
2018-12-24T05:28:53.669Z,99709.20
2018-12-24T05:31:20.122Z,99717.12
2018-12-24T05:33:46.329Z,99732.56
2018-12-24T05:36:12.558Z,99738.02
2018-12-24T05:38:38.737Z,99743.72
2018-12-24T05:41:05.241Z,99762.20
2018-12-24T05:43:31.350Z,99768.21
2018-12-24T05:45:57.791Z,99783.84
2018-12-24T05:48:23.916Z,99797.14
2018-12-24T05:50:50.141Z,99807.19
2018-12-24T05:53:16.593Z,99824.77
2018-12-24T05:55:42.848Z,99840.58
2018-12-24T05:58:09.352Z,99846.83
2018-12-24T06:00:35.618Z,99852.97
2018-12-24T06:03:01.809Z,99878.33
2018-12-24T06:05:28.249Z,99880.39
2018-12-24T06:07:56.112Z,99888.69
2018-12-24T06:10:22.548Z,99902.34
2018-12-24T06:12:48.727Z,99914.21
2018-12-24T06:15:15.203Z,99934.83
2018-12-24T06:17:41.768Z,99942.73
2018-12-24T06:20:08.273Z,99955.29
2018-12-24T06:22:34.463Z,99968.49
2018-12-24T06:25:00.643Z,99973.38
2018-12-24T06:27:26.858Z,99989.58
2018-12-24T06:29:53.014Z,99991.64
2018-12-24T06:32:19.126Z,100003.75
2018-12-24T06:34:45.244Z,100009.48
2018-12-24T06:37:11.687Z,100024.59
2018-12-24T06:39:38.224Z,100035.45
2018-12-24T06:42:04.657Z,100038.72
2018-12-24T06:44:31.293Z,100051.66
2018-12-24T06:46:57.516Z,100058.09
2018-12-24T06:49:23.690Z,100063.84
2018-12-24T06:51:49.862Z,100077.45
2018-12-24T06:54:16.419Z,100080.48
2018-12-24T06:56:42.950Z,100088.39
2018-12-24T06:59:09.157Z,100097.73
2018-12-24T07:01:35.714Z,100106.73
2018-12-24T07:04:03.258Z,100106.59
2018-12-24T07:06:29.405Z,100114.20
2018-12-24T07:08:55.535Z,100130.05
2018-12-24T07:11:21.782Z,100135.98
2018-12-24T07:13:47.979Z,100138.31
2018-12-24T07:16:14.631Z,100152.41
2018-12-24T07:18:40.756Z,100155.61
2018-12-24T07:21:07.011Z,100161.73
2018-12-24T07:23:33.533Z,100166.66
2018-12-24T07:26:00.048Z,100171.23
2018-12-24T07:28:26.205Z,100181.84
2018-12-24T07:30:52.711Z,100187.03
2018-12-24T07:33:18.937Z,100195.02
2018-12-24T07:35:45.607Z,100191.11
2018-12-24T07:38:11.840Z,100203.51
2018-12-24T07:40:38.342Z,100208.41
2018-12-24T07:43:04.612Z,100211.27
2018-12-24T07:45:30.805Z,100219.42
2018-12-24T07:47:57.020Z,100229.42
2018-12-24T07:50:23.562Z,100240.07
2018-12-24T07:52:49.744Z,100250.37
2018-12-24T07:55:16.144Z,100263.17
2018-12-24T08:00:14.779Z,100268.16
2018-12-24T08:02:41.025Z,100280.97
2018-12-24T08:05:07.222Z,100284.12
2018-12-24T08:07:33.369Z,100290.34
2018-12-24T08:09:59.962Z,100300.48
2018-12-24T08:12:27.434Z,100308.23
2018-12-24T08:15:22.902Z,100318.41
2018-12-24T08:17:40.922Z,100323.38
2018-12-24T08:20:07.082Z,100329.98
2018-12-24T08:22:33.285Z,100341.59
2018-12-24T08:25:01.926Z,100351.69
2018-12-24T08:27:35.666Z,100355.87
2018-12-24T08:30:02.235Z,100367.78
2018-12-24T08:32:28.748Z,100380.69
2018-12-24T08:34:55.252Z,100385.25
2018-12-24T08:37:21.446Z,100388.14
2018-12-24T08:39:47.857Z,100390.14
2018-12-24T08:42:14.046Z,100396.27
2018-12-24T08:44:41.942Z,100411.48
2018-12-24T08:47:08.389Z,100408.72
2018-12-24T08:49:35.065Z,100415.52
2018-12-24T08:52:03.471Z,100415.69
2018-12-24T08:54:34.097Z,100430.06
2018-12-24T08:56:57.461Z,100435.52
2018-12-24T08:59:23.750Z,100436.79
2018-12-24T09:01:49.933Z,100438.09
2018-12-24T09:04:18.150Z,100433.92
2018-12-24T09:06:45.119Z,100446.47
2018-12-24T09:09:11.495Z,100455.96
2018-12-24T09:11:39.272Z,100458.95
2018-12-24T09:14:05.918Z,100466.01
2018-12-24T09:16:37.947Z,100470.55
2018-12-24T09:19:02.590Z,100473.70
2018-12-24T09:21:33.455Z,100474.41
2018-12-24T09:24:03.057Z,100481.95
2018-12-24T09:26:43.740Z,100477.86
2018-12-24T09:29:12.805Z,100490.99
2018-12-24T09:31:39.140Z,100496.27
2018-12-24T09:34:05.470Z,100497.66
2018-12-24T09:36:32.078Z,100499.48
2018-12-24T09:38:58.753Z,100507.81
2018-12-24T09:41:25.012Z,100507.80
2018-12-24T09:43:53.600Z,100514.72
2018-12-24T09:46:21.108Z,100518.20
2018-12-24T09:48:50.152Z,100525.47
2018-12-24T09:54:08.541Z,100536.96
2018-12-24T09:56:34.841Z,100529.53
2018-12-24T09:59:01.034Z,100535.22
2018-12-24T10:01:27.267Z,100536.67
2018-12-24T10:03:53.517Z,100537.69
2018-12-24T10:06:19.925Z,100545.01
2018-12-24T10:11:21.835Z,100554.19
2018-12-24T10:13:48.318Z,100561.98
2018-12-24T10:16:14.564Z,100562.89
2018-12-24T10:18:40.802Z,100564.04
2018-12-24T10:21:10.032Z,100565.70
2018-12-24T10:23:36.231Z,100568.02
2018-12-24T10:26:04.744Z,100578.61
2018-12-24T10:28:33.442Z,100573.50
2018-12-24T10:31:00.159Z,100577.62
2018-12-24T10:33:30.303Z,100577.63
2018-12-24T10:35:56.794Z,100584.27
2018-12-24T10:38:23.019Z,100581.48
2018-12-24T10:40:49.440Z,100586.23
2018-12-24T10:43:15.619Z,100588.67
2018-12-24T10:45:42.221Z,100593.32
2018-12-24T10:48:08.703Z,100597.21
2018-12-24T10:50:35.042Z,100589.41
2018-12-24T10:53:01.721Z,100590.63
2018-12-24T10:55:28.152Z,100591.93
2018-12-24T10:57:54.358Z,100596.20
2018-12-24T11:00:20.546Z,100602.73
2018-12-24T11:02:46.813Z,100607.17
2018-12-24T11:05:14.987Z,100604.83
2018-12-24T11:07:41.163Z,100609.37
2018-12-24T11:10:07.373Z,100606.57
2018-12-24T11:12:33.566Z,100609.52
2018-12-24T11:14:59.795Z,100605.80
2018-12-24T11:17:26.049Z,100614.06
2018-12-24T11:19:54.201Z,100616.44
2018-12-24T11:22:20.621Z,100615.16
2018-12-24T11:24:46.847Z,100608.44
2018-12-24T11:27:13.189Z,100621.51
2018-12-24T11:29:39.627Z,100616.37
2018-12-24T11:32:06.121Z,100616.48
2018-12-24T11:34:32.252Z,100619.14
2018-12-24T11:36:59.127Z,100625.59
2018-12-24T11:39:25.318Z,100618.79
2018-12-24T11:41:51.538Z,100630.94
2018-12-24T11:44:17.721Z,100633.83
2018-12-24T11:46:43.969Z,100634.11
2018-12-24T11:49:10.507Z,100634.16
2018-12-24T11:51:36.806Z,100642.75
2018-12-24T11:54:03.311Z,100645.63
2018-12-24T11:56:29.834Z,100653.11
2018-12-24T11:58:56.028Z,100650.24
2018-12-24T12:01:22.501Z,100653.55
2018-12-24T12:03:48.640Z,100656.56
2018-12-24T12:06:55.553Z,100659.14
2018-12-24T12:09:21.606Z,100653.24
2018-12-24T12:11:47.985Z,100653.01
2018-12-24T12:14:14.081Z,100664.91
2018-12-24T12:16:40.482Z,100675.08
2018-12-24T12:19:06.573Z,100683.77
2018-12-24T12:21:32.965Z,100687.69
2018-12-24T12:23:59.325Z,100687.89
2018-12-24T12:26:26.345Z,100694.66
2018-12-24T12:28:52.502Z,100702.66
2018-12-24T12:31:18.611Z,100706.26
2018-12-24T12:33:44.672Z,100720.58
2018-12-24T12:36:11.270Z,100715.87
2018-12-24T12:38:37.705Z,100732.13
2018-12-24T12:41:03.800Z,100740.08
2018-12-24T12:43:30.344Z,100744.14
2018-12-24T12:45:56.432Z,100747.23
2018-12-24T12:48:22.779Z,100749.27
2018-12-24T12:50:48.796Z,100765.92
2018-12-24T12:53:14.978Z,100773.55
2018-12-24T12:55:41.319Z,100776.41
2018-12-24T12:58:07.737Z,100774.84
2018-12-24T13:00:34.030Z,100769.89
2018-12-24T13:03:00.352Z,100781.48
2018-12-24T13:05:26.453Z,100783.86
2018-12-24T13:07:52.549Z,100794.62
2018-12-24T13:10:21.152Z,100804.50
2018-12-24T13:12:47.578Z,100808.16
2018-12-24T13:15:13.937Z,100816.17
2018-12-24T13:17:40.134Z,100816.63
2018-12-24T13:20:06.234Z,100828.56
2018-12-24T13:22:32.346Z,100835.91
2018-12-24T13:25:03.593Z,100844.94
2018-12-24T13:27:29.966Z,100842.20
2018-12-24T13:29:56.073Z,100844.37
2018-12-24T13:32:22.663Z,100844.80
2018-12-24T13:34:48.733Z,100847.09
2018-12-24T13:37:16.105Z,100855.95
2018-12-24T13:39:44.330Z,100859.41
2018-12-24T13:42:12.769Z,100869.81
2018-12-24T13:44:38.803Z,100874.28
2018-12-24T13:47:06.854Z,100879.23
2018-12-24T13:49:32.862Z,100885.52
2018-12-24T13:52:00.601Z,100884.95
2018-12-24T13:54:33.753Z,100889.29
2018-12-24T13:57:01.439Z,100890.16
2018-12-24T13:59:27.582Z,100889.98
2018-12-24T14:01:55.780Z,100890.68
2018-12-24T14:04:21.969Z,100897.62
2018-12-24T14:06:48.910Z,100894.53
2018-12-24T14:09:15.092Z,100912.61
2018-12-24T14:11:41.175Z,100915.43
2018-12-24T14:14:08.949Z,100933.46
2018-12-24T14:16:36.519Z,100923.80
2018-12-24T14:19:04.039Z,100929.94
2018-12-24T14:21:30.428Z,100941.70
2018-12-24T14:23:57.795Z,100937.64
2018-12-24T14:26:24.170Z,100947.30
2018-12-24T14:28:54.408Z,100953.79
2018-12-24T14:31:19.177Z,100955.32
2018-12-24T14:33:51.947Z,100955.28
2018-12-24T14:36:13.527Z,100959.69
2018-12-24T14:38:41.112Z,100965.04
2018-12-24T14:41:07.680Z,100979.30
2018-12-24T14:43:34.125Z,100985.98
2018-12-24T14:46:00.341Z,100979.20
2018-12-24T14:48:26.758Z,100987.47
2018-12-24T14:50:53.219Z,100997.02
2018-12-24T14:53:19.979Z,101003.28
2018-12-24T14:55:46.411Z,101011.13
2018-12-24T14:58:14.868Z,101016.74
2018-12-24T15:00:42.807Z,101022.98
2018-12-24T15:03:09.042Z,101023.80
2018-12-24T15:05:36.451Z,101024.89
2018-12-24T15:08:02.673Z,101027.21
2018-12-24T15:10:29.050Z,101030.21
2018-12-24T15:12:56.321Z,101033.98
2018-12-24T15:15:22.502Z,101034.88
2018-12-24T15:17:49.766Z,101045.45
2018-12-24T15:20:15.898Z,101048.18
2018-12-24T15:22:42.317Z,101056.48
2018-12-24T15:25:08.425Z,101057.94
2018-12-24T15:27:34.943Z,101073.78
2018-12-24T15:30:01.377Z,101073.67
2018-12-24T15:32:32.263Z,101080.78
2018-12-24T15:34:55.278Z,101079.45
2018-12-24T15:37:21.435Z,101080.98
2018-12-24T15:39:47.656Z,101084.66
2018-12-24T15:42:15.156Z,101079.97
2018-12-24T15:44:41.530Z,101089.47
2018-12-24T15:47:07.919Z,101082.06
2018-12-24T15:49:34.348Z,101091.31
2018-12-24T15:52:00.603Z,101096.69
2018-12-24T15:54:27.043Z,101102.88
2018-12-24T15:56:53.183Z,101108.45
2018-12-24T15:59:20.156Z,101108.55
2018-12-24T16:01:46.246Z,101107.84
2018-12-24T16:04:12.739Z,101113.70
2018-12-24T16:06:38.862Z,101112.61
2018-12-24T16:09:04.989Z,101121.20
2018-12-24T16:11:33.774Z,101131.77
2018-12-24T16:14:00.009Z,101136.84
2018-12-24T16:16:28.707Z,101136.60
2018-12-24T16:18:55.129Z,101138.61
2018-12-24T16:21:21.267Z,101145.57
2018-12-24T16:23:47.690Z,101147.69
2018-12-24T16:26:16.577Z,101152.73
2018-12-24T16:28:43.020Z,101154.58
2018-12-24T16:31:11.017Z,101153.58
2018-12-24T16:33:37.347Z,101143.85
2018-12-24T16:36:03.539Z,101143.85
2018-12-24T16:38:29.869Z,101147.32
2018-12-24T16:40:56.286Z,101146.12
2018-12-24T16:43:22.366Z,101139.69
2018-12-24T16:45:48.507Z,101136.86
2018-12-24T16:48:15.007Z,101139.14
2018-12-24T16:50:41.157Z,101135.72
2018-12-24T16:53:07.554Z,101133.67
2018-12-24T16:55:33.955Z,101134.47
2018-12-24T16:58:00.123Z,101132.05
2018-12-24T17:00:26.235Z,101130.53
2018-12-24T17:02:52.421Z,101135.60
2018-12-24T17:05:18.505Z,101138.08
2018-12-24T17:07:44.584Z,101132.84
2018-12-24T17:10:10.833Z,101139.69
2018-12-24T17:12:37.307Z,101143.32
2018-12-24T17:15:03.369Z,101142.26
2018-12-24T17:17:29.473Z,101144.52
2018-12-24T17:19:56.136Z,101140.14
2018-12-24T17:22:23.387Z,101141.20
2018-12-24T17:24:50.788Z,101143.00
2018-12-24T17:27:18.931Z,101145.41
2018-12-24T17:29:45.108Z,101143.27
2018-12-24T17:32:14.297Z,101143.95
2018-12-24T17:34:40.678Z,101139.80
2018-12-24T17:37:07.955Z,101136.63
2018-12-24T17:39:34.419Z,101135.45
2018-12-24T17:42:00.749Z,101140.28
2018-12-24T17:44:28.807Z,101138.21
2018-12-24T17:46:54.862Z,101131.42
2018-12-24T17:49:21.047Z,101124.98
2018-12-24T17:51:47.222Z,101123.83
2018-12-24T17:54:13.652Z,101120.84
2018-12-24T17:56:40.065Z,101129.42
2018-12-24T17:59:06.214Z,101131.50
2018-12-24T18:01:32.315Z,101138.59
2018-12-24T18:03:58.397Z,101145.11
2018-12-24T18:06:24.749Z,101159.85
2018-12-24T18:08:50.840Z,101166.14
2018-12-24T18:11:16.856Z,101169.37
2018-12-24T18:13:44.331Z,101171.93
2018-12-24T18:16:10.438Z,101176.07
2018-12-24T18:18:36.548Z,101184.17
2018-12-24T18:21:03.449Z,101186.24
2018-12-24T18:23:29.503Z,101183.13
2018-12-24T18:25:55.891Z,101188.39
2018-12-24T18:28:22.293Z,101199.14
2018-12-24T18:30:48.702Z,101192.16
2018-12-24T18:33:15.094Z,101181.67
2018-12-24T18:35:41.241Z,101179.37
2018-12-24T18:38:07.670Z,101190.58
2018-12-24T18:40:36.940Z,101185.44
2018-12-24T18:43:05.223Z,101182.22
2018-12-24T18:45:31.105Z,101183.26
2018-12-24T18:47:57.219Z,101178.82
2018-12-24T18:50:23.664Z,101172.53
2018-12-24T18:52:49.745Z,101176.84
2018-12-24T18:55:17.869Z,101178.75
2018-12-24T18:57:44.280Z,101180.38
2018-12-24T19:00:10.669Z,101182.04
2018-12-24T19:02:37.147Z,101182.16
2018-12-24T19:05:03.286Z,101171.89
2018-12-24T19:07:29.406Z,101162.90
2018-12-24T19:09:55.570Z,101162.10
2018-12-24T19:12:21.682Z,101151.71
2018-12-24T19:14:47.934Z,101138.93
2018-12-24T19:17:17.376Z,101145.66
2018-12-24T19:19:45.232Z,101155.37
2018-12-24T19:22:11.349Z,101169.41
2018-12-24T19:24:37.435Z,101169.64
2018-12-24T19:27:05.885Z,101171.61
2018-12-24T19:29:31.956Z,101166.34
2018-12-24T19:32:00.994Z,101164.95
2018-12-24T19:34:27.439Z,101154.49
2018-12-24T19:36:53.538Z,101160.13
2018-12-24T19:39:19.883Z,101149.04
2018-12-24T19:41:46.280Z,101151.90
2018-12-24T19:44:12.641Z,101154.83
2018-12-24T19:46:39.084Z,101154.83
2018-12-24T19:49:05.160Z,101154.02
2018-12-24T19:51:31.555Z,101154.06
2018-12-24T19:54:04.966Z,101154.36
2018-12-24T19:56:35.464Z,101151.13
2018-12-24T19:59:00.889Z,101150.80
2018-12-24T20:01:27.307Z,101158.13
2018-12-24T20:03:53.362Z,101157.22
2018-12-24T20:06:19.430Z,101165.00
2018-12-24T20:08:45.525Z,101164.74
2018-12-24T20:11:11.588Z,101165.39
2018-12-24T20:13:38.875Z,101173.02
2018-12-24T20:16:05.150Z,101173.67
2018-12-24T20:18:31.514Z,101165.20
2018-12-24T20:20:57.635Z,101168.88
2018-12-24T20:23:23.963Z,101163.22
2018-12-24T20:25:50.043Z,101166.99
2018-12-24T20:28:16.160Z,101167.97
2018-12-24T20:30:44.654Z,101170.34
2018-12-24T20:33:10.792Z,101177.02
2018-12-24T20:35:36.927Z,101175.51
2018-12-24T20:38:03.354Z,101170.78
2018-12-24T20:40:29.938Z,101175.36
2018-12-24T20:42:58.929Z,101177.30
2018-12-24T20:45:25.362Z,101169.09
2018-12-24T20:48:06.494Z,101172.59
2018-12-24T20:50:26.585Z,101170.42
2018-12-24T20:52:52.637Z,101183.03
2018-12-24T20:55:18.722Z,101176.50
2018-12-24T20:57:45.111Z,101180.84
2018-12-24T21:00:11.482Z,101174.20
2018-12-24T21:02:37.631Z,101178.09
2018-12-24T21:05:03.752Z,101184.43
2018-12-24T21:07:35.713Z,101190.55
2018-12-24T21:10:01.830Z,101189.15
2018-12-24T21:12:28.305Z,101180.34
2018-12-24T21:14:55.433Z,101188.17
2018-12-24T21:17:24.633Z,101183.77
2018-12-24T21:19:51.050Z,101184.98
2018-12-24T21:22:17.335Z,101184.17
2018-12-24T21:24:43.593Z,101186.64
2018-12-24T21:27:09.682Z,101189.31
2018-12-24T21:29:35.806Z,101195.30
2018-12-24T21:32:02.173Z,101197.83
2018-12-24T21:34:28.266Z,101213.20
2018-12-24T21:36:57.619Z,101216.72
2018-12-24T21:39:22.194Z,101217.90
2018-12-24T21:41:50.813Z,101219.11
2018-12-24T21:44:16.909Z,101219.95
2018-12-24T21:46:43.327Z,101206.78
2018-12-24T21:49:09.724Z,101197.81
2018-12-24T21:51:36.128Z,101188.41
2018-12-24T21:54:03.659Z,101189.03
2018-12-24T21:56:30.048Z,101174.22
2018-12-24T21:58:57.230Z,101171.47
2018-12-24T22:01:23.326Z,101171.94
2018-12-24T22:03:49.924Z,101168.86
2018-12-24T22:06:16.075Z,101174.70
2018-12-24T22:08:42.152Z,101178.66
2018-12-24T22:11:08.250Z,101174.95
2018-12-24T22:13:35.617Z,101178.73
2018-12-24T22:16:02.406Z,101176.80
2018-12-24T22:18:32.289Z,101184.27
2018-12-24T22:20:59.018Z,101164.80
2018-12-24T22:23:25.057Z,101166.81
2018-12-24T22:25:51.295Z,101159.31
2018-12-24T22:28:17.440Z,101154.89
2018-12-24T22:30:46.823Z,101150.48
2018-12-24T22:33:14.672Z,101153.66
2018-12-24T22:35:40.867Z,101162.63
2018-12-24T22:38:07.088Z,101159.68
2018-12-24T22:40:33.370Z,101149.66
2018-12-24T22:43:00.080Z,101153.98
2018-12-24T22:45:26.499Z,101147.29
2018-12-24T22:47:52.893Z,101141.73
2018-12-24T22:50:21.061Z,101142.12
2018-12-24T22:52:47.182Z,101141.11
2018-12-24T22:55:13.238Z,101129.33
2018-12-24T22:57:39.474Z,101119.59
2018-12-24T23:00:05.768Z,101126.15
2018-12-24T23:02:31.797Z,101130.02
2018-12-24T23:04:57.961Z,101124.03
2018-12-24T23:07:24.046Z,101118.02
2018-12-24T23:09:50.123Z,101121.42
2018-12-24T23:12:16.191Z,101126.21
2018-12-24T23:14:42.815Z,101125.13
2018-12-24T23:17:08.896Z,101117.73
2018-12-24T23:19:35.034Z,101117.20
2018-12-24T23:22:01.286Z,101132.30
2018-12-24T23:24:27.396Z,101127.50
2018-12-24T23:26:53.489Z,101130.49
2018-12-24T23:29:19.614Z,101137.56
2018-12-24T23:31:45.987Z,101141.83
2018-12-24T23:34:12.533Z,101142.83
2018-12-24T23:39:10.368Z,101154.75
2018-12-24T23:41:36.510Z,101147.20
2018-12-24T23:44:12.904Z,101144.86
2018-12-24T23:46:38.946Z,101149.95
2018-12-24T23:49:05.102Z,101164.32
2018-12-24T23:51:31.162Z,101154.70
2018-12-24T23:53:57.209Z,101144.18
2018-12-24T23:56:23.563Z,101144.23
2018-12-24T23:58:49.726Z,101148.84
